sensor_id;sensor_type;location;lat;lon;timestamp;P1;durP1;ratioP1;P2;durP2;ratioP2
21543;SDS011;10933;50.754;11.508;2022-09-29T00:01:32;6.23;;;4.80;;
21543;SDS011;10933;50.754;11.508;2022-09-29T00:03:58;5.97;;;5.40;;
21543;SDS011;10933;50.754;11.508;2022-09-29T00:06:24;5.40;;;5.10;;
21543;SDS011;10933;50.754;11.508;2022-09-29T00:08:51;5.67;;;5.37;;
21543;SDS011;10933;50.754;11.508;2022-09-29T00:11:17;8.90;;;5.87;;
21543;SDS011;10933;50.754;11.508;2022-09-29T00:13:44;6.40;;;6.00;;
21543;SDS011;10933;50.754;11.508;2022-09-29T00:16:11;9.40;;;8.70;;
21543;SDS011;10933;50.754;11.508;2022-09-29T00:18:38;7.27;;;6.20;;
21543;SDS011;10933;50.754;11.508;2022-09-29T00:21:06;22.90;;;11.60;;
21543;SDS011;10933;50.754;11.508;2022-09-29T00:23:34;11.27;;;8.97;;
21543;SDS011;10933;50.754;11.508;2022-09-29T00:26:05;8.17;;;4.53;;
21543;SDS011;10933;50.754;11.508;2022-09-29T00:28:37;4.53;;;4.03;;
21543;SDS011;10933;50.754;11.508;2022-09-29T00:31:05;9.73;;;5.20;;
21543;SDS011;10933;50.754;11.508;2022-09-29T00:33:34;15.73;;;5.30;;
21543;SDS011;10933;50.754;11.508;2022-09-29T00:36:03;8.80;;;6.30;;
21543;SDS011;10933;50.754;11.508;2022-09-29T00:38:36;24.03;;;6.43;;
21543;SDS011;10933;50.754;11.508;2022-09-29T00:41:03;104.07;;;9.73;;
21543;SDS011;10933;50.754;11.508;2022-09-29T00:46:29;19.63;;;5.70;;
21543;SDS011;10933;50.754;11.508;2022-09-29T00:49:02;43.40;;;6.50;;
21543;SDS011;10933;50.754;11.508;2022-09-29T00:51:36;20.63;;;6.20;;
21543;SDS011;10933;50.754;11.508;2022-09-29T00:54:04;99.90;;;8.90;;
21543;SDS011;10933;50.754;11.508;2022-09-29T00:56:32;148.73;;;8.97;;
21543;SDS011;10933;50.754;11.508;2022-09-29T00:59:02;188.67;;;11.47;;
21543;SDS011;10933;50.754;11.508;2022-09-29T01:01:33;177.83;;;10.20;;
21543;SDS011;10933;50.754;11.508;2022-09-29T01:04:08;53.53;;;7.40;;
21543;SDS011;10933;50.754;11.508;2022-09-29T01:06:40;75.60;;;8.37;;
21543;SDS011;10933;50.754;11.508;2022-09-29T01:09:15;89.73;;;8.73;;
21543;SDS011;10933;50.754;11.508;2022-09-29T01:11:44;203.87;;;11.20;;
21543;SDS011;10933;50.754;11.508;2022-09-29T01:14:11;156.97;;;11.13;;
21543;SDS011;10933;50.754;11.508;2022-09-29T01:16:38;91.93;;;8.83;;
21543;SDS011;10933;50.754;11.508;2022-09-29T01:19:07;32.93;;;8.23;;
21543;SDS011;10933;50.754;11.508;2022-09-29T01:41:11;61.67;;;7.83;;
21543;SDS011;10933;50.754;11.508;2022-09-29T01:46:35;99.53;;;7.67;;
21543;SDS011;10933;50.754;11.508;2022-09-29T01:49:07;37.43;;;6.37;;
21543;SDS011;10933;50.754;11.508;2022-09-29T01:51:39;117.17;;;8.63;;
21543;SDS011;10933;50.754;11.508;2022-09-29T01:54:48;22.40;;;5.87;;
21543;SDS011;10933;50.754;11.508;2022-09-29T02:00:24;98.17;;;8.43;;
21543;SDS011;10933;50.754;11.508;2022-09-29T02:05:32;121.77;;;9.70;;
21543;SDS011;10933;50.754;11.508;2022-09-29T02:08:14;24.67;;;6.97;;
21543;SDS011;10933;50.754;11.508;2022-09-29T02:11:01;30.13;;;6.67;;
21543;SDS011;10933;50.754;11.508;2022-09-29T02:13:33;31.00;;;6.70;;
21543;SDS011;10933;50.754;11.508;2022-09-29T02:16:04;88.97;;;7.53;;
21543;SDS011;10933;50.754;11.508;2022-09-29T02:18:41;33.77;;;7.00;;
21543;SDS011;10933;50.754;11.508;2022-09-29T02:21:16;22.90;;;6.80;;
21543;SDS011;10933;50.754;11.508;2022-09-29T02:23:42;18.07;;;6.30;;
21543;SDS011;10933;50.754;11.508;2022-09-29T02:26:09;22.87;;;5.47;;
21543;SDS011;10933;50.754;11.508;2022-09-29T02:28:38;14.87;;;6.20;;
21543;SDS011;10933;50.754;11.508;2022-09-29T02:31:05;8.50;;;5.93;;
21543;SDS011;10933;50.754;11.508;2022-09-29T02:33:32;13.37;;;6.10;;
21543;SDS011;10933;50.754;11.508;2022-09-29T02:55:27;5.27;;;4.93;;
21543;SDS011;10933;50.754;11.508;2022-09-29T02:58:31;5.90;;;5.40;;
21543;SDS011;10933;50.754;11.508;2022-09-29T03:01:06;5.83;;;5.27;;
21543;SDS011;10933;50.754;11.508;2022-09-29T03:03:33;5.17;;;4.70;;
21543;SDS011;10933;50.754;11.508;2022-09-29T03:05:59;5.90;;;5.50;;
21543;SDS011;10933;50.754;11.508;2022-09-29T03:08:25;6.10;;;5.67;;
21543;SDS011;10933;50.754;11.508;2022-09-29T03:10:51;6.67;;;5.40;;
21543;SDS011;10933;50.754;11.508;2022-09-29T03:13:17;4.77;;;4.47;;
21543;SDS011;10933;50.754;11.508;2022-09-29T03:15:44;4.73;;;4.30;;
21543;SDS011;10933;50.754;11.508;2022-09-29T03:18:10;6.20;;;5.80;;
21543;SDS011;10933;50.754;11.508;2022-09-29T03:20:36;5.93;;;5.53;;
21543;SDS011;10933;50.754;11.508;2022-09-29T03:23:02;6.17;;;5.67;;
21543;SDS011;10933;50.754;11.508;2022-09-29T03:25:28;5.37;;;4.97;;
21543;SDS011;10933;50.754;11.508;2022-09-29T03:27:55;5.50;;;5.13;;
21543;SDS011;10933;50.754;11.508;2022-09-29T03:30:21;6.90;;;6.50;;
21543;SDS011;10933;50.754;11.508;2022-09-29T03:32:47;5.20;;;4.90;;
21543;SDS011;10933;50.754;11.508;2022-09-29T03:35:14;5.30;;;5.00;;
21543;SDS011;10933;50.754;11.508;2022-09-29T03:37:40;6.70;;;6.30;;
21543;SDS011;10933;50.754;11.508;2022-09-29T03:40:06;8.93;;;8.33;;
21543;SDS011;10933;50.754;11.508;2022-09-29T03:42:33;8.10;;;7.40;;
21543;SDS011;10933;50.754;11.508;2022-09-29T03:44:59;7.57;;;7.07;;
21543;SDS011;10933;50.754;11.508;2022-09-29T03:47:25;6.77;;;6.27;;
21543;SDS011;10933;50.754;11.508;2022-09-29T03:49:51;6.80;;;6.20;;
21543;SDS011;10933;50.754;11.508;2022-09-29T03:52:17;6.37;;;5.97;;
21543;SDS011;10933;50.754;11.508;2022-09-29T03:54:44;6.33;;;5.30;;
21543;SDS011;10933;50.754;11.508;2022-09-29T03:57:10;6.10;;;5.70;;
21543;SDS011;10933;50.754;11.508;2022-09-29T03:59:36;5.87;;;5.57;;
21543;SDS011;10933;50.754;11.508;2022-09-29T04:02:02;6.03;;;5.63;;
21543;SDS011;10933;50.754;11.508;2022-09-29T04:04:28;6.20;;;5.77;;
21543;SDS011;10933;50.754;11.508;2022-09-29T04:06:54;5.33;;;5.03;;
21543;SDS011;10933;50.754;11.508;2022-09-29T04:09:20;6.40;;;5.90;;
21543;SDS011;10933;50.754;11.508;2022-09-29T04:11:47;5.80;;;5.40;;
21543;SDS011;10933;50.754;11.508;2022-09-29T04:14:13;5.80;;;5.40;;
21543;SDS011;10933;50.754;11.508;2022-09-29T04:16:39;5.00;;;4.70;;
21543;SDS011;10933;50.754;11.508;2022-09-29T04:19:05;6.97;;;4.97;;
21543;SDS011;10933;50.754;11.508;2022-09-29T04:21:31;5.07;;;4.77;;
21543;SDS011;10933;50.754;11.508;2022-09-29T04:23:57;5.03;;;4.73;;
21543;SDS011;10933;50.754;11.508;2022-09-29T04:26:24;5.23;;;4.93;;
21543;SDS011;10933;50.754;11.508;2022-09-29T04:28:50;5.60;;;4.97;;
21543;SDS011;10933;50.754;11.508;2022-09-29T04:31:16;6.10;;;5.70;;
21543;SDS011;10933;50.754;11.508;2022-09-29T04:33:42;7.00;;;6.50;;
21543;SDS011;10933;50.754;11.508;2022-09-29T04:36:08;6.73;;;6.33;;
21543;SDS011;10933;50.754;11.508;2022-09-29T04:38:34;6.00;;;5.60;;
21543;SDS011;10933;50.754;11.508;2022-09-29T04:41:00;5.80;;;5.43;;
21543;SDS011;10933;50.754;11.508;2022-09-29T04:43:27;6.03;;;5.63;;
21543;SDS011;10933;50.754;11.508;2022-09-29T04:45:59;6.33;;;5.93;;
21543;SDS011;10933;50.754;11.508;2022-09-29T04:48:27;6.17;;;5.77;;
21543;SDS011;10933;50.754;11.508;2022-09-29T04:50:53;5.00;;;4.70;;
21543;SDS011;10933;50.754;11.508;2022-09-29T04:53:19;5.93;;;5.53;;
21543;SDS011;10933;50.754;11.508;2022-09-29T04:55:45;5.50;;;5.20;;
21543;SDS011;10933;50.754;11.508;2022-09-29T04:58:11;6.03;;;5.47;;
21543;SDS011;10933;50.754;11.508;2022-09-29T05:00:39;9.40;;;5.50;;
21543;SDS011;10933;50.754;11.508;2022-09-29T05:03:05;6.23;;;5.83;;
21543;SDS011;10933;50.754;11.508;2022-09-29T05:05:31;5.30;;;5.00;;
21543;SDS011;10933;50.754;11.508;2022-09-29T05:07:57;5.93;;;5.53;;
21543;SDS011;10933;50.754;11.508;2022-09-29T05:10:24;5.90;;;5.40;;
21543;SDS011;10933;50.754;11.508;2022-09-29T05:12:51;5.83;;;5.43;;
21543;SDS011;10933;50.754;11.508;2022-09-29T05:15:17;6.13;;;5.43;;
21543;SDS011;10933;50.754;11.508;2022-09-29T05:17:44;5.73;;;5.33;;
21543;SDS011;10933;50.754;11.508;2022-09-29T05:20:10;5.60;;;5.30;;
21543;SDS011;10933;50.754;11.508;2022-09-29T05:22:37;7.03;;;5.63;;
21543;SDS011;10933;50.754;11.508;2022-09-29T05:25:03;5.40;;;5.10;;
21543;SDS011;10933;50.754;11.508;2022-09-29T05:27:30;5.90;;;5.50;;
21543;SDS011;10933;50.754;11.508;2022-09-29T05:29:56;6.17;;;5.77;;
21543;SDS011;10933;50.754;11.508;2022-09-29T05:32:22;6.80;;;6.40;;
21543;SDS011;10933;50.754;11.508;2022-09-29T05:34:48;7.37;;;6.87;;
21543;SDS011;10933;50.754;11.508;2022-09-29T05:37:14;6.60;;;6.20;;
21543;SDS011;10933;50.754;11.508;2022-09-29T05:39:42;6.57;;;6.17;;
21543;SDS011;10933;50.754;11.508;2022-09-29T05:42:09;7.87;;;7.37;;
21543;SDS011;10933;50.754;11.508;2022-09-29T05:44:36;7.10;;;6.60;;
21543;SDS011;10933;50.754;11.508;2022-09-29T05:47:02;8.83;;;8.33;;
21543;SDS011;10933;50.754;11.508;2022-09-29T05:49:28;10.33;;;9.67;;
21543;SDS011;10933;50.754;11.508;2022-09-29T05:51:56;9.03;;;8.40;;
21543;SDS011;10933;50.754;11.508;2022-09-29T05:54:23;7.83;;;7.33;;
21543;SDS011;10933;50.754;11.508;2022-09-29T05:56:51;7.57;;;7.07;;
21543;SDS011;10933;50.754;11.508;2022-09-29T05:59:17;8.13;;;7.63;;
21543;SDS011;10933;50.754;11.508;2022-09-29T06:01:44;6.77;;;6.27;;
21543;SDS011;10933;50.754;11.508;2022-09-29T06:04:10;7.33;;;6.93;;
21543;SDS011;10933;50.754;11.508;2022-09-29T06:06:36;8.70;;;8.00;;
21543;SDS011;10933;50.754;11.508;2022-09-29T06:09:04;7.67;;;7.17;;
21543;SDS011;10933;50.754;11.508;2022-09-29T06:11:30;7.97;;;7.17;;
21543;SDS011;10933;50.754;11.508;2022-09-29T06:13:56;6.97;;;6.57;;
21543;SDS011;10933;50.754;11.508;2022-09-29T06:16:24;6.60;;;6.20;;
21543;SDS011;10933;50.754;11.508;2022-09-29T06:18:51;7.77;;;6.23;;
21543;SDS011;10933;50.754;11.508;2022-09-29T06:21:19;6.07;;;5.67;;
21543;SDS011;10933;50.754;11.508;2022-09-29T06:23:50;5.27;;;4.97;;
21543;SDS011;10933;50.754;11.508;2022-09-29T06:26:18;5.00;;;4.70;;
21543;SDS011;10933;50.754;11.508;2022-09-29T06:28:46;5.40;;;4.90;;
21543;SDS011;10933;50.754;11.508;2022-09-29T06:31:14;5.30;;;5.00;;
21543;SDS011;10933;50.754;11.508;2022-09-29T06:33:41;4.90;;;4.70;;
21543;SDS011;10933;50.754;11.508;2022-09-29T06:39:07;5.73;;;5.43;;
21543;SDS011;10933;50.754;11.508;2022-09-29T06:41:35;5.20;;;4.90;;
21543;SDS011;10933;50.754;11.508;2022-09-29T06:44:01;5.73;;;5.23;;
21543;SDS011;10933;50.754;11.508;2022-09-29T06:46:27;5.70;;;5.30;;
21543;SDS011;10933;50.754;11.508;2022-09-29T06:48:54;32.57;;;6.57;;
21543;SDS011;10933;50.754;11.508;2022-09-29T06:51:21;6.63;;;6.23;;
21543;SDS011;10933;50.754;11.508;2022-09-29T06:53:49;7.30;;;6.80;;
21543;SDS011;10933;50.754;11.508;2022-09-29T06:56:16;21.30;;;10.10;;
21543;SDS011;10933;50.754;11.508;2022-09-29T06:58:43;32.07;;;10.33;;
21543;SDS011;10933;50.754;11.508;2022-09-29T07:01:10;17.23;;;9.10;;
21543;SDS011;10933;50.754;11.508;2022-09-29T07:03:37;9.20;;;8.40;;
21543;SDS011;10933;50.754;11.508;2022-09-29T07:06:05;51.63;;;11.00;;
21543;SDS011;10933;50.754;11.508;2022-09-29T07:08:32;18.60;;;9.60;;
21543;SDS011;10933;50.754;11.508;2022-09-29T07:11:00;28.83;;;11.30;;
21543;SDS011;10933;50.754;11.508;2022-09-29T07:13:30;11.33;;;9.67;;
21543;SDS011;10933;50.754;11.508;2022-09-29T07:15:56;72.80;;;11.77;;
21543;SDS011;10933;50.754;11.508;2022-09-29T07:18:36;18.17;;;7.33;;
21543;SDS011;10933;50.754;11.508;2022-09-29T07:21:05;12.87;;;8.03;;
21543;SDS011;10933;50.754;11.508;2022-09-29T07:23:34;6.13;;;5.83;;
21543;SDS011;10933;50.754;11.508;2022-09-29T07:26:00;12.93;;;7.23;;
21543;SDS011;10933;50.754;11.508;2022-09-29T07:28:28;6.47;;;5.90;;
21543;SDS011;10933;50.754;11.508;2022-09-29T07:31:04;17.60;;;7.33;;
21543;SDS011;10933;50.754;11.508;2022-09-29T07:33:36;14.17;;;7.03;;
21543;SDS011;10933;50.754;11.508;2022-09-29T07:36:02;8.23;;;7.73;;
21543;SDS011;10933;50.754;11.508;2022-09-29T07:38:29;8.50;;;8.00;;
21543;SDS011;10933;50.754;11.508;2022-09-29T07:41:05;10.37;;;7.17;;
21543;SDS011;10933;50.754;11.508;2022-09-29T07:43:33;8.00;;;7.50;;
21543;SDS011;10933;50.754;11.508;2022-09-29T07:45:59;8.10;;;7.50;;
21543;SDS011;10933;50.754;11.508;2022-09-29T07:48:26;15.97;;;7.97;;
21543;SDS011;10933;50.754;11.508;2022-09-29T07:51:07;8.87;;;8.23;;
21543;SDS011;10933;50.754;11.508;2022-09-29T07:53:38;9.17;;;8.47;;
21543;SDS011;10933;50.754;11.508;2022-09-29T07:56:06;9.97;;;9.37;;
21543;SDS011;10933;50.754;11.508;2022-09-29T07:58:34;9.03;;;8.47;;
21543;SDS011;10933;50.754;11.508;2022-09-29T08:01:02;7.53;;;7.13;;
21543;SDS011;10933;50.754;11.508;2022-09-29T08:03:30;8.60;;;8.10;;
21543;SDS011;10933;50.754;11.508;2022-09-29T08:05:57;8.13;;;7.53;;
21543;SDS011;10933;50.754;11.508;2022-09-29T08:08:24;11.90;;;10.95;;
21543;SDS011;10933;50.754;11.508;2022-09-29T08:10:50;9.93;;;7.90;;
21543;SDS011;10933;50.754;11.508;2022-09-29T08:13:16;9.45;;;8.82;;
21543;SDS011;10933;50.754;11.508;2022-09-29T08:15:42;13.10;;;11.98;;
21543;SDS011;10933;50.754;11.508;2022-09-29T08:18:09;12.93;;;11.60;;
21543;SDS011;10933;50.754;11.508;2022-09-29T08:20:35;15.18;;;13.70;;
21543;SDS011;10933;50.754;11.508;2022-09-29T08:23:01;12.43;;;11.38;;
21543;SDS011;10933;50.754;11.508;2022-09-29T08:25:27;9.57;;;8.98;;
21543;SDS011;10933;50.754;11.508;2022-09-29T08:27:53;8.30;;;7.70;;
21543;SDS011;10933;50.754;11.508;2022-09-29T08:30:20;7.05;;;6.65;;
21543;SDS011;10933;50.754;11.508;2022-09-29T08:32:50;9.20;;;8.45;;
21543;SDS011;10933;50.754;11.508;2022-09-29T08:35:16;7.63;;;7.13;;
21543;SDS011;10933;50.754;11.508;2022-09-29T08:37:43;8.00;;;7.50;;
21543;SDS011;10933;50.754;11.508;2022-09-29T08:40:09;4.20;;;4.00;;
21543;SDS011;10933;50.754;11.508;2022-09-29T08:45:13;3.88;;;3.67;;
21543;SDS011;10933;50.754;11.508;2022-09-29T08:48:09;4.30;;;4.00;;
21543;SDS011;10933;50.754;11.508;2022-09-29T08:53:23;3.08;;;2.88;;
21543;SDS011;10933;50.754;11.508;2022-09-29T08:56:05;2.70;;;2.50;;
21543;SDS011;10933;50.754;11.508;2022-09-29T08:58:34;2.42;;;2.33;;
21543;SDS011;10933;50.754;11.508;2022-09-29T09:06:35;2.63;;;2.42;;
21543;SDS011;10933;50.754;11.508;2022-09-29T09:09:39;3.00;;;2.80;;
21543;SDS011;10933;50.754;11.508;2022-09-29T09:12:07;4.60;;;4.30;;
21543;SDS011;10933;50.754;11.508;2022-09-29T09:20:33;2.00;;;1.90;;
21543;SDS011;10933;50.754;11.508;2022-09-29T09:25:51;2.22;;;1.70;;
21543;SDS011;10933;50.754;11.508;2022-09-29T09:33:29;1.80;;;1.70;;
21543;SDS011;10933;50.754;11.508;2022-09-29T09:38:52;4.63;;;1.40;;
21543;SDS011;10933;50.754;11.508;2022-09-29T09:41:20;3.05;;;1.90;;
21543;SDS011;10933;50.754;11.508;2022-09-29T09:43:50;1.90;;;1.80;;
21543;SDS011;10933;50.754;11.508;2022-09-29T09:49:16;2.90;;;2.65;;
21543;SDS011;10933;50.754;11.508;2022-09-29T09:52:15;2.13;;;1.80;;
21543;SDS011;10933;50.754;11.508;2022-09-29T09:54:48;2.50;;;1.70;;
21543;SDS011;10933;50.754;11.508;2022-09-29T10:02:51;2.67;;;2.25;;
21543;SDS011;10933;50.754;11.508;2022-09-29T10:05:21;2.38;;;2.00;;
21543;SDS011;10933;50.754;11.508;2022-09-29T10:07:58;3.83;;;2.80;;
21543;SDS011;10933;50.754;11.508;2022-09-29T10:10:25;6.50;;;3.88;;
21543;SDS011;10933;50.754;11.508;2022-09-29T10:12:57;3.88;;;3.20;;
21543;SDS011;10933;50.754;11.508;2022-09-29T10:18:13;2.80;;;2.60;;
21543;SDS011;10933;50.754;11.508;2022-09-29T10:20:44;2.92;;;2.72;;
21543;SDS011;10933;50.754;11.508;2022-09-29T10:23:24;2.72;;;2.53;;
21543;SDS011;10933;50.754;11.508;2022-09-29T10:25:56;2.53;;;2.33;;
21543;SDS011;10933;50.754;11.508;2022-09-29T10:28:35;1.83;;;1.73;;
21543;SDS011;10933;50.754;11.508;2022-09-29T10:31:25;2.10;;;2.00;;
21543;SDS011;10933;50.754;11.508;2022-09-29T10:34:02;1.90;;;1.80;;
21543;SDS011;10933;50.754;11.508;2022-09-29T10:36:57;2.47;;;2.28;;
21543;SDS011;10933;50.754;11.508;2022-09-29T10:39:42;2.67;;;2.47;;
21543;SDS011;10933;50.754;11.508;2022-09-29T10:42:22;2.95;;;2.25;;
21543;SDS011;10933;50.754;11.508;2022-09-29T10:44:53;2.67;;;1.88;;
21543;SDS011;10933;50.754;11.508;2022-09-29T10:47:26;2.55;;;2.35;;
21543;SDS011;10933;50.754;11.508;2022-09-29T10:50:06;2.50;;;2.30;;
21543;SDS011;10933;50.754;11.508;2022-09-29T10:52:42;2.03;;;1.83;;
21543;SDS011;10933;50.754;11.508;2022-09-29T10:55:17;2.03;;;1.85;;
21543;SDS011;10933;50.754;11.508;2022-09-29T10:57:46;1.92;;;1.83;;
21543;SDS011;10933;50.754;11.508;2022-09-29T11:03:06;1.98;;;1.77;;
21543;SDS011;10933;50.754;11.508;2022-09-29T11:05:41;9.57;;;8.98;;
21543;SDS011;10933;50.754;11.508;2022-09-29T11:08:16;12.98;;;3.38;;
21543;SDS011;10933;50.754;11.508;2022-09-29T11:10:45;16.95;;;15.80;;
21543;SDS011;10933;50.754;11.508;2022-09-29T11:15:44;3.33;;;2.55;;
21543;SDS011;10933;50.754;11.508;2022-09-29T11:18:20;2.25;;;2.15;;
21543;SDS011;10933;50.754;11.508;2022-09-29T11:20:56;3.15;;;2.95;;
21543;SDS011;10933;50.754;11.508;2022-09-29T11:26:23;3.33;;;3.13;;
21543;SDS011;10933;50.754;11.508;2022-09-29T11:34:41;2.60;;;2.20;;
21543;SDS011;10933;50.754;11.508;2022-09-29T11:42:59;2.78;;;2.58;;
21543;SDS011;10933;50.754;11.508;2022-09-29T11:45:43;3.35;;;3.15;;
21543;SDS011;10933;50.754;11.508;2022-09-29T11:53:58;44.65;;;36.40;;
21543;SDS011;10933;50.754;11.508;2022-09-29T12:16:11;8.88;;;2.10;;
21543;SDS011;10933;50.754;11.508;2022-09-29T12:21:46;2.78;;;0.70;;
21543;SDS011;10933;50.754;11.508;2022-09-29T12:26:49;0.68;;;0.68;;
21543;SDS011;10933;50.754;11.508;2022-09-29T12:32:45;2.95;;;1.27;;
21543;SDS011;10933;50.754;11.508;2022-09-29T12:34:55;3.17;;;0.60;;
21543;SDS011;10933;50.754;11.508;2022-09-29T12:37:38;2.40;;;0.80;;
21543;SDS011;10933;50.754;11.508;2022-09-29T12:40:18;0.60;;;0.60;;
21543;SDS011;10933;50.754;11.508;2022-09-29T12:51:48;4.63;;;4.03;;
21543;SDS011;10933;50.754;11.508;2022-09-29T12:57:08;2.15;;;1.40;;
21543;SDS011;10933;50.754;11.508;2022-09-29T13:07:54;1.30;;;1.20;;
21543;SDS011;10933;50.754;11.508;2022-09-29T13:29:49;2.42;;;2.22;;
21543;SDS011;10933;50.754;11.508;2022-09-29T13:32:22;1.52;;;1.40;;
21543;SDS011;10933;50.754;11.508;2022-09-29T13:34:55;3.55;;;1.63;;
21543;SDS011;10933;50.754;11.508;2022-09-29T13:37:24;1.52;;;1.38;;
21543;SDS011;10933;50.754;11.508;2022-09-29T13:39:59;2.08;;;1.90;;
21543;SDS011;10933;50.754;11.508;2022-09-29T13:55:54;2.30;;;2.10;;
21543;SDS011;10933;50.754;11.508;2022-09-29T13:58:33;4.45;;;1.40;;
21543;SDS011;10933;50.754;11.508;2022-09-29T14:01:06;3.83;;;1.70;;
21543;SDS011;10933;50.754;11.508;2022-09-29T14:03:37;1.73;;;1.63;;
21543;SDS011;10933;50.754;11.508;2022-09-29T14:08:38;2.30;;;1.90;;
21543;SDS011;10933;50.754;11.508;2022-09-29T14:11:32;2.03;;;1.20;;
21543;SDS011;10933;50.754;11.508;2022-09-29T14:14:04;1.83;;;1.30;;
21543;SDS011;10933;50.754;11.508;2022-09-29T14:27:44;0.82;;;0.82;;
21543;SDS011;10933;50.754;11.508;2022-09-29T14:34:05;0.80;;;0.80;;
21543;SDS011;10933;50.754;11.508;2022-09-29T14:36:05;1.15;;;0.98;;
21543;SDS011;10933;50.754;11.508;2022-09-29T14:41:27;2.40;;;0.85;;
21543;SDS011;10933;50.754;11.508;2022-09-29T14:44:00;1.48;;;0.73;;
21543;SDS011;10933;50.754;11.508;2022-09-29T14:55:46;1.77;;;1.00;;
21543;SDS011;10933;50.754;11.508;2022-09-29T15:03:47;3.88;;;1.10;;
21543;SDS011;10933;50.754;11.508;2022-09-29T15:06:20;2.97;;;1.33;;
21543;SDS011;10933;50.754;11.508;2022-09-29T15:11:40;2.55;;;0.80;;
21543;SDS011;10933;50.754;11.508;2022-09-29T15:27:22;0.82;;;0.80;;
21543;SDS011;10933;50.754;11.508;2022-09-29T15:29:52;2.22;;;0.75;;
21543;SDS011;10933;50.754;11.508;2022-09-29T15:32:25;1.83;;;1.13;;
21543;SDS011;10933;50.754;11.508;2022-09-29T15:35:00;1.38;;;1.08;;
21543;SDS011;10933;50.754;11.508;2022-09-29T15:40:21;0.90;;;0.90;;
21543;SDS011;10933;50.754;11.508;2022-09-29T15:42:49;1.25;;;1.15;;
21543;SDS011;10933;50.754;11.508;2022-09-29T15:47:47;1.35;;;1.20;;
21543;SDS011;10933;50.754;11.508;2022-09-29T15:50:28;1.30;;;1.10;;
21543;SDS011;10933;50.754;11.508;2022-09-29T15:52:57;1.50;;;1.30;;
21543;SDS011;10933;50.754;11.508;2022-09-29T15:55:26;3.60;;;1.65;;
21543;SDS011;10933;50.754;11.508;2022-09-29T15:57:56;3.67;;;1.80;;
21543;SDS011;10933;50.754;11.508;2022-09-29T16:03:25;1.60;;;1.50;;
21543;SDS011;10933;50.754;11.508;2022-09-29T16:08:30;1.70;;;1.50;;
21543;SDS011;10933;50.754;11.508;2022-09-29T16:11:00;1.90;;;1.80;;
21543;SDS011;10933;50.754;11.508;2022-09-29T16:13:40;3.95;;;1.77;;
21543;SDS011;10933;50.754;11.508;2022-09-29T16:16:14;5.57;;;2.27;;
21543;SDS011;10933;50.754;11.508;2022-09-29T16:18:41;3.20;;;2.03;;
21543;SDS011;10933;50.754;11.508;2022-09-29T16:21:20;2.90;;;2.08;;
21543;SDS011;10933;50.754;11.508;2022-09-29T16:23:49;2.30;;;1.73;;
21543;SDS011;10933;50.754;11.508;2022-09-29T16:26:39;1.50;;;1.40;;
21543;SDS011;10933;50.754;11.508;2022-09-29T16:31:52;2.25;;;1.60;;
21543;SDS011;10933;50.754;11.508;2022-09-29T16:39:41;3.42;;;1.77;;
21543;SDS011;10933;50.754;11.508;2022-09-29T16:42:20;2.47;;;2.38;;
21543;SDS011;10933;50.754;11.508;2022-09-29T16:44:51;2.55;;;1.48;;
21543;SDS011;10933;50.754;11.508;2022-09-29T16:47:20;2.70;;;1.70;;
21543;SDS011;10933;50.754;11.508;2022-09-29T16:49:55;1.63;;;1.52;;
21543;SDS011;10933;50.754;11.508;2022-09-29T16:52:42;2.03;;;1.67;;
21543;SDS011;10933;50.754;11.508;2022-09-29T16:55:15;15.23;;;2.60;;
21543;SDS011;10933;50.754;11.508;2022-09-29T17:00:27;1.73;;;1.63;;
21543;SDS011;10933;50.754;11.508;2022-09-29T17:02:54;3.27;;;1.87;;
21543;SDS011;10933;50.754;11.508;2022-09-29T17:05:29;2.37;;;2.23;;
21543;SDS011;10933;50.754;11.508;2022-09-29T17:08:02;4.00;;;3.70;;
21543;SDS011;10933;50.754;11.508;2022-09-29T17:10:29;10.63;;;9.97;;
21543;SDS011;10933;50.754;11.508;2022-09-29T17:12:55;8.70;;;8.30;;
21543;SDS011;10933;50.754;11.508;2022-09-29T17:15:22;23.77;;;22.07;;
21543;SDS011;10933;50.754;11.508;2022-09-29T17:17:49;10.63;;;9.93;;
21543;SDS011;10933;50.754;11.508;2022-09-29T17:20:17;2.73;;;2.63;;
21543;SDS011;10933;50.754;11.508;2022-09-29T17:22:52;9.77;;;8.53;;
21543;SDS011;10933;50.754;11.508;2022-09-29T17:25:20;8.23;;;7.40;;
21543;SDS011;10933;50.754;11.508;2022-09-29T17:27:47;3.23;;;2.97;;
21543;SDS011;10933;50.754;11.508;2022-09-29T17:30:31;12.37;;;11.47;;
21543;SDS011;10933;50.754;11.508;2022-09-29T17:32:58;15.27;;;14.10;;
21543;SDS011;10933;50.754;11.508;2022-09-29T17:35:28;19.80;;;18.00;;
21543;SDS011;10933;50.754;11.508;2022-09-29T17:37:57;19.10;;;16.27;;
21543;SDS011;10933;50.754;11.508;2022-09-29T17:40:32;16.07;;;14.73;;
21543;SDS011;10933;50.754;11.508;2022-09-29T17:43:02;5.10;;;4.70;;
21543;SDS011;10933;50.754;11.508;2022-09-29T17:45:28;5.90;;;5.50;;
21543;SDS011;10933;50.754;11.508;2022-09-29T17:47:58;6.00;;;5.47;;
21543;SDS011;10933;50.754;11.508;2022-09-29T17:50:30;9.67;;;8.87;;
21543;SDS011;10933;50.754;11.508;2022-09-29T17:53:00;15.33;;;13.97;;
21543;SDS011;10933;50.754;11.508;2022-09-29T17:55:31;11.73;;;10.87;;
21543;SDS011;10933;50.754;11.508;2022-09-29T17:57:58;8.60;;;7.87;;
21543;SDS011;10933;50.754;11.508;2022-09-29T18:00:37;7.30;;;6.57;;
21543;SDS011;10933;50.754;11.508;2022-09-29T18:03:04;10.50;;;9.90;;
21543;SDS011;10933;50.754;11.508;2022-09-29T18:05:33;9.17;;;8.57;;
21543;SDS011;10933;50.754;11.508;2022-09-29T18:08:02;8.40;;;7.77;;
21543;SDS011;10933;50.754;11.508;2022-09-29T18:10:49;8.97;;;8.17;;
21543;SDS011;10933;50.754;11.508;2022-09-29T18:13:17;9.63;;;8.23;;
21543;SDS011;10933;50.754;11.508;2022-09-29T18:15:45;18.40;;;6.37;;
21543;SDS011;10933;50.754;11.508;2022-09-29T18:18:12;11.13;;;10.33;;
21543;SDS011;10933;50.754;11.508;2022-09-29T18:20:41;7.87;;;7.23;;
21543;SDS011;10933;50.754;11.508;2022-09-29T18:23:10;3.83;;;3.50;;
21543;SDS011;10933;50.754;11.508;2022-09-29T18:25:37;5.30;;;4.93;;
21543;SDS011;10933;50.754;11.508;2022-09-29T18:28:03;5.43;;;4.90;;
21543;SDS011;10933;50.754;11.508;2022-09-29T18:30:31;5.80;;;5.30;;
21543;SDS011;10933;50.754;11.508;2022-09-29T18:33:03;68.13;;;14.00;;
21543;SDS011;10933;50.754;11.508;2022-09-29T18:35:31;4.60;;;4.30;;
21543;SDS011;10933;50.754;11.508;2022-09-29T18:37:59;5.30;;;3.97;;
21543;SDS011;10933;50.754;11.508;2022-09-29T18:40:26;6.50;;;3.87;;
21543;SDS011;10933;50.754;11.508;2022-09-29T18:42:54;4.27;;;4.07;;
21543;SDS011;10933;50.754;11.508;2022-09-29T18:45:23;4.40;;;4.10;;
21543;SDS011;10933;50.754;11.508;2022-09-29T18:48:01;4.50;;;4.20;;
21543;SDS011;10933;50.754;11.508;2022-09-29T18:50:30;3.70;;;3.50;;
21543;SDS011;10933;50.754;11.508;2022-09-29T18:52:58;4.73;;;4.33;;
21543;SDS011;10933;50.754;11.508;2022-09-29T18:55:26;5.97;;;5.37;;
21543;SDS011;10933;50.754;11.508;2022-09-29T18:57:53;7.33;;;6.93;;
21543;SDS011;10933;50.754;11.508;2022-09-29T19:00:22;7.90;;;7.20;;
21543;SDS011;10933;50.754;11.508;2022-09-29T19:02:51;7.83;;;7.10;;
21543;SDS011;10933;50.754;11.508;2022-09-29T19:05:18;8.67;;;8.07;;
21543;SDS011;10933;50.754;11.508;2022-09-29T19:07:53;5.80;;;5.33;;
21543;SDS011;10933;50.754;11.508;2022-09-29T19:10:22;4.20;;;3.90;;
21543;SDS011;10933;50.754;11.508;2022-09-29T19:12:49;4.40;;;4.00;;
21543;SDS011;10933;50.754;11.508;2022-09-29T19:15:20;4.13;;;3.83;;
21543;SDS011;10933;50.754;11.508;2022-09-29T19:17:47;4.73;;;4.43;;
21543;SDS011;10933;50.754;11.508;2022-09-29T19:20:14;4.97;;;4.67;;